Beech, Iowa
Current Conditions -  °F | °C
As of 10:35 AM on Friday 19 Dec 2014 (Local Time) from KOXV Reporting Station
Haze Haze  
Wind Chill: 22°   Ceiling: 4200
Heat Index: 28°   Visibility: 6mi
Dew Point: 25°   Wind: 6mph
Humidity: 86%   Direction: 130°SE
Pressure: 30.28"   Gusts: NA
Location:  41.3471°N, 93.2818°W
Report Text: KOXV 191635Z AUTO 13005KT 6SM BR OVC042 M02/M04 A3028 RMK AO2
Loading
Personal Weather Stations






























Interactive Weather Map New forecast layout! Learn more

10-Day Weather Forecast

Advertisements
Track Severe Weather on mobile